sensor_id;sensor_type;location;lat;lon;timestamp;P1;durP1;ratioP1;P2;durP2;ratioP2
14528;SDS011;7351;51.194;4.098;2023-04-30T00:00:27;14.20;;;13.03;;
14528;SDS011;7351;51.194;4.098;2023-04-30T00:02:56;12.40;;;11.23;;
14528;SDS011;7351;51.194;4.098;2023-04-30T00:05:22;14.43;;;13.03;;
14528;SDS011;7351;51.194;4.098;2023-04-30T00:07:49;12.50;;;11.53;;
14528;SDS011;7351;51.194;4.098;2023-04-30T00:10:16;13.03;;;11.87;;
14528;SDS011;7351;51.194;4.098;2023-04-30T00:12:43;12.23;;;11.20;;
14528;SDS011;7351;51.194;4.098;2023-04-30T00:15:10;13.13;;;11.93;;
14528;SDS011;7351;51.194;4.098;2023-04-30T00:17:37;12.13;;;11.10;;
14528;SDS011;7351;51.194;4.098;2023-04-30T00:20:06;12.20;;;11.20;;
14528;SDS011;7351;51.194;4.098;2023-04-30T00:22:33;12.23;;;11.13;;
14528;SDS011;7351;51.194;4.098;2023-04-30T00:25:00;11.90;;;10.90;;
14528;SDS011;7351;51.194;4.098;2023-04-30T00:27:27;12.37;;;11.27;;
14528;SDS011;7351;51.194;4.098;2023-04-30T00:29:55;11.73;;;10.83;;
14528;SDS011;7351;51.194;4.098;2023-04-30T00:32:22;11.87;;;10.77;;
14528;SDS011;7351;51.194;4.098;2023-04-30T00:34:49;11.33;;;10.43;;
14528;SDS011;7351;51.194;4.098;2023-04-30T00:37:21;9.57;;;8.87;;
14528;SDS011;7351;51.194;4.098;2023-04-30T00:39:48;10.70;;;9.80;;
14528;SDS011;7351;51.194;4.098;2023-04-30T00:42:15;10.93;;;10.00;;
14528;SDS011;7351;51.194;4.098;2023-04-30T00:44:42;9.37;;;8.67;;
14528;SDS011;7351;51.194;4.098;2023-04-30T00:47:08;10.00;;;9.10;;
14528;SDS011;7351;51.194;4.098;2023-04-30T00:49:35;10.17;;;9.37;;
14528;SDS011;7351;51.194;4.098;2023-04-30T00:52:02;9.47;;;8.77;;
14528;SDS011;7351;51.194;4.098;2023-04-30T00:54:31;9.93;;;9.13;;
14528;SDS011;7351;51.194;4.098;2023-04-30T00:56:58;10.07;;;9.20;;
14528;SDS011;7351;51.194;4.098;2023-04-30T00:59:25;10.27;;;9.37;;
14528;SDS011;7351;51.194;4.098;2023-04-30T01:01:54;8.97;;;8.27;;
14528;SDS011;7351;51.194;4.098;2023-04-30T01:04:22;10.07;;;9.20;;
14528;SDS011;7351;51.194;4.098;2023-04-30T01:06:50;9.20;;;8.40;;
14528;SDS011;7351;51.194;4.098;2023-04-30T01:09:17;8.67;;;8.07;;
14528;SDS011;7351;51.194;4.098;2023-04-30T01:11:50;8.87;;;8.07;;
14528;SDS011;7351;51.194;4.098;2023-04-30T01:14:26;8.57;;;7.87;;
14528;SDS011;7351;51.194;4.098;2023-04-30T01:16:59;9.70;;;8.90;;
14528;SDS011;7351;51.194;4.098;2023-04-30T01:19:34;9.67;;;8.90;;
14528;SDS011;7351;51.194;4.098;2023-04-30T01:22:03;9.23;;;8.57;;
14528;SDS011;7351;51.194;4.098;2023-04-30T01:24:42;8.97;;;8.17;;
14528;SDS011;7351;51.194;4.098;2023-04-30T01:27:37;9.00;;;8.27;;
14528;SDS011;7351;51.194;4.098;2023-04-30T01:30:30;8.70;;;8.10;;
14528;SDS011;7351;51.194;4.098;2023-04-30T01:32:58;8.63;;;7.93;;
14528;SDS011;7351;51.194;4.098;2023-04-30T01:35:30;8.20;;;7.60;;
14528;SDS011;7351;51.194;4.098;2023-04-30T01:38:36;8.77;;;7.70;;
14528;SDS011;7351;51.194;4.098;2023-04-30T01:41:17;9.53;;;8.67;;
14528;SDS011;7351;51.194;4.098;2023-04-30T01:43:54;7.87;;;7.17;;
14528;SDS011;7351;51.194;4.098;2023-04-30T01:46:31;8.40;;;7.80;;
14528;SDS011;7351;51.194;4.098;2023-04-30T01:49:01;8.30;;;7.63;;
14528;SDS011;7351;51.194;4.098;2023-04-30T01:51:36;9.27;;;8.23;;
14528;SDS011;7351;51.194;4.098;2023-04-30T01:54:08;8.40;;;7.73;;
14528;SDS011;7351;51.194;4.098;2023-04-30T01:56:43;7.93;;;7.43;;
14528;SDS011;7351;51.194;4.098;2023-04-30T01:59:19;8.67;;;8.10;;
14528;SDS011;7351;51.194;4.098;2023-04-30T02:01:46;7.47;;;6.97;;
14528;SDS011;7351;51.194;4.098;2023-04-30T02:04:13;8.53;;;7.73;;
14528;SDS011;7351;51.194;4.098;2023-04-30T02:06:40;7.27;;;6.70;;
14528;SDS011;7351;51.194;4.098;2023-04-30T02:09:07;7.37;;;6.87;;
14528;SDS011;7351;51.194;4.098;2023-04-30T02:11:34;8.17;;;7.47;;
14528;SDS011;7351;51.194;4.098;2023-04-30T02:14:01;8.83;;;8.10;;
14528;SDS011;7351;51.194;4.098;2023-04-30T02:16:29;7.60;;;6.97;;
14528;SDS011;7351;51.194;4.098;2023-04-30T02:18:56;7.77;;;7.17;;
14528;SDS011;7351;51.194;4.098;2023-04-30T02:21:23;7.67;;;7.17;;
14528;SDS011;7351;51.194;4.098;2023-04-30T02:23:51;7.50;;;6.80;;
14528;SDS011;7351;51.194;4.098;2023-04-30T02:26:18;8.20;;;7.50;;
14528;SDS011;7351;51.194;4.098;2023-04-30T02:28:45;7.13;;;6.37;;
14528;SDS011;7351;51.194;4.098;2023-04-30T02:31:12;8.43;;;7.83;;
14528;SDS011;7351;51.194;4.098;2023-04-30T02:33:40;8.53;;;7.23;;
14528;SDS011;7351;51.194;4.098;2023-04-30T02:36:07;7.70;;;7.00;;
14528;SDS011;7351;51.194;4.098;2023-04-30T02:38:34;7.33;;;6.47;;
14528;SDS011;7351;51.194;4.098;2023-04-30T02:41:01;8.00;;;7.30;;
14528;SDS011;7351;51.194;4.098;2023-04-30T02:43:28;7.27;;;6.80;;
14528;SDS011;7351;51.194;4.098;2023-04-30T02:45:55;6.97;;;6.53;;
14528;SDS011;7351;51.194;4.098;2023-04-30T02:48:22;6.93;;;6.43;;
14528;SDS011;7351;51.194;4.098;2023-04-30T02:50:50;7.87;;;7.27;;
14528;SDS011;7351;51.194;4.098;2023-04-30T02:53:17;7.23;;;6.60;;
14528;SDS011;7351;51.194;4.098;2023-04-30T02:55:44;6.73;;;6.33;;
14528;SDS011;7351;51.194;4.098;2023-04-30T02:58:11;7.67;;;7.07;;
14528;SDS011;7351;51.194;4.098;2023-04-30T03:00:38;6.97;;;6.37;;
14528;SDS011;7351;51.194;4.098;2023-04-30T03:03:05;7.27;;;6.77;;
14528;SDS011;7351;51.194;4.098;2023-04-30T03:05:32;7.53;;;6.60;;
14528;SDS011;7351;51.194;4.098;2023-04-30T03:08:01;7.63;;;7.03;;
14528;SDS011;7351;51.194;4.098;2023-04-30T03:10:28;8.30;;;6.87;;
14528;SDS011;7351;51.194;4.098;2023-04-30T03:12:54;6.90;;;6.20;;
14528;SDS011;7351;51.194;4.098;2023-04-30T03:15:21;8.23;;;7.33;;
14528;SDS011;7351;51.194;4.098;2023-04-30T03:17:48;7.00;;;6.40;;
14528;SDS011;7351;51.194;4.098;2023-04-30T03:20:15;7.13;;;6.53;;
14528;SDS011;7351;51.194;4.098;2023-04-30T03:22:42;7.67;;;6.97;;
14528;SDS011;7351;51.194;4.098;2023-04-30T03:25:11;7.47;;;6.80;;
14528;SDS011;7351;51.194;4.098;2023-04-30T03:27:38;6.83;;;6.40;;
14528;SDS011;7351;51.194;4.098;2023-04-30T03:30:05;6.80;;;6.30;;
14528;SDS011;7351;51.194;4.098;2023-04-30T03:32:33;6.77;;;6.27;;
14528;SDS011;7351;51.194;4.098;2023-04-30T03:35:00;7.93;;;7.27;;
14528;SDS011;7351;51.194;4.098;2023-04-30T03:37:27;6.93;;;6.37;;
14528;SDS011;7351;51.194;4.098;2023-04-30T03:39:54;6.80;;;6.40;;
14528;SDS011;7351;51.194;4.098;2023-04-30T03:42:22;7.43;;;6.93;;
14528;SDS011;7351;51.194;4.098;2023-04-30T03:44:49;7.00;;;6.40;;
14528;SDS011;7351;51.194;4.098;2023-04-30T03:47:16;7.20;;;6.60;;
14528;SDS011;7351;51.194;4.098;2023-04-30T03:49:43;7.20;;;6.70;;
14528;SDS011;7351;51.194;4.098;2023-04-30T03:52:10;7.70;;;7.00;;
14528;SDS011;7351;51.194;4.098;2023-04-30T03:54:37;6.30;;;5.70;;
14528;SDS011;7351;51.194;4.098;2023-04-30T03:57:04;6.67;;;6.27;;
14528;SDS011;7351;51.194;4.098;2023-04-30T03:59:33;7.53;;;7.10;;
14528;SDS011;7351;51.194;4.098;2023-04-30T04:02:00;6.87;;;6.37;;
14528;SDS011;7351;51.194;4.098;2023-04-30T04:04:27;5.97;;;5.57;;
14528;SDS011;7351;51.194;4.098;2023-04-30T04:06:54;6.67;;;6.17;;
14528;SDS011;7351;51.194;4.098;2023-04-30T04:09:21;5.70;;;5.30;;
14528;SDS011;7351;51.194;4.098;2023-04-30T04:11:48;6.90;;;6.20;;
14528;SDS011;7351;51.194;4.098;2023-04-30T04:14:15;7.17;;;6.67;;
14528;SDS011;7351;51.194;4.098;2023-04-30T04:16:43;6.57;;;6.17;;
14528;SDS011;7351;51.194;4.098;2023-04-30T04:19:10;6.43;;;5.93;;
14528;SDS011;7351;51.194;4.098;2023-04-30T04:21:38;7.17;;;6.63;;
14528;SDS011;7351;51.194;4.098;2023-04-30T04:24:05;7.83;;;7.43;;
14528;SDS011;7351;51.194;4.098;2023-04-30T04:26:32;6.20;;;5.80;;
14528;SDS011;7351;51.194;4.098;2023-04-30T04:29:00;7.07;;;6.53;;
14528;SDS011;7351;51.194;4.098;2023-04-30T04:31:27;6.47;;;6.03;;
14528;SDS011;7351;51.194;4.098;2023-04-30T04:33:56;5.97;;;5.47;;
14528;SDS011;7351;51.194;4.098;2023-04-30T04:36:24;6.73;;;6.03;;
14528;SDS011;7351;51.194;4.098;2023-04-30T04:38:52;6.53;;;5.93;;
14528;SDS011;7351;51.194;4.098;2023-04-30T04:41:19;7.77;;;7.07;;
14528;SDS011;7351;51.194;4.098;2023-04-30T04:43:47;7.23;;;6.63;;
14528;SDS011;7351;51.194;4.098;2023-04-30T04:46:14;7.40;;;5.60;;
14528;SDS011;7351;51.194;4.098;2023-04-30T04:48:41;6.33;;;5.87;;
14528;SDS011;7351;51.194;4.098;2023-04-30T04:51:09;6.77;;;6.27;;
14528;SDS011;7351;51.194;4.098;2023-04-30T04:53:36;5.87;;;5.47;;
14528;SDS011;7351;51.194;4.098;2023-04-30T04:56:04;5.23;;;4.83;;
14528;SDS011;7351;51.194;4.098;2023-04-30T04:58:32;5.67;;;5.00;;
14528;SDS011;7351;51.194;4.098;2023-04-30T05:00:59;5.33;;;4.83;;
14528;SDS011;7351;51.194;4.098;2023-04-30T05:03:27;5.57;;;5.17;;
14528;SDS011;7351;51.194;4.098;2023-04-30T05:05:55;5.20;;;4.87;;
14528;SDS011;7351;51.194;4.098;2023-04-30T05:08:23;4.83;;;4.43;;
14528;SDS011;7351;51.194;4.098;2023-04-30T05:10:51;4.37;;;4.07;;
14528;SDS011;7351;51.194;4.098;2023-04-30T05:13:18;5.00;;;4.60;;
14528;SDS011;7351;51.194;4.098;2023-04-30T05:15:45;4.83;;;4.53;;
14528;SDS011;7351;51.194;4.098;2023-04-30T05:18:12;4.80;;;4.50;;
14528;SDS011;7351;51.194;4.098;2023-04-30T05:20:39;4.03;;;3.73;;
14528;SDS011;7351;51.194;4.098;2023-04-30T05:23:06;4.70;;;4.40;;
14528;SDS011;7351;51.194;4.098;2023-04-30T05:25:35;5.40;;;4.97;;
14528;SDS011;7351;51.194;4.098;2023-04-30T05:28:02;5.37;;;4.13;;
14528;SDS011;7351;51.194;4.098;2023-04-30T05:30:30;7.23;;;4.73;;
14528;SDS011;7351;51.194;4.098;2023-04-30T05:32:58;5.03;;;4.67;;
14528;SDS011;7351;51.194;4.098;2023-04-30T05:35:25;7.40;;;4.97;;
14528;SDS011;7351;51.194;4.098;2023-04-30T05:37:51;6.33;;;5.73;;
14528;SDS011;7351;51.194;4.098;2023-04-30T05:40:19;6.00;;;5.50;;
14528;SDS011;7351;51.194;4.098;2023-04-30T05:42:47;7.63;;;5.67;;
14528;SDS011;7351;51.194;4.098;2023-04-30T05:45:14;6.53;;;5.23;;
14528;SDS011;7351;51.194;4.098;2023-04-30T05:47:41;5.47;;;5.07;;
14528;SDS011;7351;51.194;4.098;2023-04-30T05:50:08;4.97;;;4.67;;
14528;SDS011;7351;51.194;4.098;2023-04-30T05:52:35;4.97;;;4.67;;
14528;SDS011;7351;51.194;4.098;2023-04-30T05:55:02;4.10;;;3.80;;
14528;SDS011;7351;51.194;4.098;2023-04-30T05:57:29;5.63;;;5.23;;
14528;SDS011;7351;51.194;4.098;2023-04-30T05:59:58;5.03;;;4.57;;
14528;SDS011;7351;51.194;4.098;2023-04-30T06:02:25;5.13;;;3.87;;
14528;SDS011;7351;51.194;4.098;2023-04-30T06:04:52;7.27;;;4.60;;
14528;SDS011;7351;51.194;4.098;2023-04-30T06:07:18;4.77;;;4.43;;
14528;SDS011;7351;51.194;4.098;2023-04-30T06:09:45;4.97;;;4.60;;
14528;SDS011;7351;51.194;4.098;2023-04-30T06:12:12;4.87;;;4.57;;
14528;SDS011;7351;51.194;4.098;2023-04-30T06:14:39;5.03;;;4.63;;
14528;SDS011;7351;51.194;4.098;2023-04-30T06:17:10;5.00;;;4.70;;
14528;SDS011;7351;51.194;4.098;2023-04-30T06:19:37;4.40;;;4.10;;
14528;SDS011;7351;51.194;4.098;2023-04-30T06:22:04;4.87;;;4.57;;
14528;SDS011;7351;51.194;4.098;2023-04-30T06:24:31;4.53;;;4.00;;
14528;SDS011;7351;51.194;4.098;2023-04-30T06:26:58;4.80;;;4.50;;
14528;SDS011;7351;51.194;4.098;2023-04-30T06:29:26;4.87;;;4.40;;
14528;SDS011;7351;51.194;4.098;2023-04-30T06:31:53;4.50;;;4.20;;
14528;SDS011;7351;51.194;4.098;2023-04-30T06:34:22;5.67;;;5.17;;
14528;SDS011;7351;51.194;4.098;2023-04-30T06:36:49;5.13;;;4.73;;
14528;SDS011;7351;51.194;4.098;2023-04-30T06:39:16;5.17;;;4.43;;
14528;SDS011;7351;51.194;4.098;2023-04-30T06:41:43;4.97;;;4.57;;
14528;SDS011;7351;51.194;4.098;2023-04-30T06:44:11;4.77;;;4.40;;
14528;SDS011;7351;51.194;4.098;2023-04-30T06:46:39;5.83;;;5.33;;
14528;SDS011;7351;51.194;4.098;2023-04-30T06:49:06;5.30;;;5.00;;
14528;SDS011;7351;51.194;4.098;2023-04-30T06:51:34;5.37;;;4.87;;
14528;SDS011;7351;51.194;4.098;2023-04-30T06:54:01;4.50;;;4.27;;
14528;SDS011;7351;51.194;4.098;2023-04-30T06:56:28;5.20;;;4.80;;
14528;SDS011;7351;51.194;4.098;2023-04-30T06:58:55;5.47;;;5.17;;
14528;SDS011;7351;51.194;4.098;2023-04-30T07:01:22;5.10;;;4.80;;
14528;SDS011;7351;51.194;4.098;2023-04-30T07:03:49;5.90;;;5.03;;
14528;SDS011;7351;51.194;4.098;2023-04-30T07:06:16;4.97;;;4.67;;
14528;SDS011;7351;51.194;4.098;2023-04-30T07:08:45;5.40;;;4.90;;
14528;SDS011;7351;51.194;4.098;2023-04-30T07:11:12;5.13;;;4.73;;
14528;SDS011;7351;51.194;4.098;2023-04-30T07:13:39;5.57;;;5.23;;
14528;SDS011;7351;51.194;4.098;2023-04-30T07:16:06;5.17;;;4.80;;
14528;SDS011;7351;51.194;4.098;2023-04-30T07:18:34;5.83;;;4.87;;
14528;SDS011;7351;51.194;4.098;2023-04-30T07:21:02;5.60;;;5.10;;
14528;SDS011;7351;51.194;4.098;2023-04-30T07:23:29;6.70;;;5.70;;
14528;SDS011;7351;51.194;4.098;2023-04-30T07:25:57;6.20;;;5.70;;
14528;SDS011;7351;51.194;4.098;2023-04-30T07:28:24;6.33;;;5.60;;
14528;SDS011;7351;51.194;4.098;2023-04-30T07:30:51;5.93;;;5.57;;
14528;SDS011;7351;51.194;4.098;2023-04-30T07:33:18;5.57;;;5.10;;
14528;SDS011;7351;51.194;4.098;2023-04-30T07:35:46;6.93;;;6.10;;
14528;SDS011;7351;51.194;4.098;2023-04-30T07:38:13;7.03;;;6.53;;
14528;SDS011;7351;51.194;4.098;2023-04-30T07:40:41;6.60;;;5.93;;
14528;SDS011;7351;51.194;4.098;2023-04-30T07:43:09;6.87;;;6.37;;
14528;SDS011;7351;51.194;4.098;2023-04-30T07:45:36;6.93;;;6.37;;
14528;SDS011;7351;51.194;4.098;2023-04-30T07:48:03;6.63;;;6.03;;
14528;SDS011;7351;51.194;4.098;2023-04-30T07:50:30;6.23;;;5.77;;
14528;SDS011;7351;51.194;4.098;2023-04-30T07:52:58;6.20;;;5.47;;
14528;SDS011;7351;51.194;4.098;2023-04-30T07:55:26;5.80;;;5.30;;
14528;SDS011;7351;51.194;4.098;2023-04-30T07:57:53;5.97;;;5.33;;
14528;SDS011;7351;51.194;4.098;2023-04-30T08:00:21;8.13;;;6.47;;
14528;SDS011;7351;51.194;4.098;2023-04-30T08:02:50;5.53;;;4.80;;
14528;SDS011;7351;51.194;4.098;2023-04-30T08:05:17;10.60;;;6.60;;
14528;SDS011;7351;51.194;4.098;2023-04-30T08:07:44;15.40;;;7.20;;
14528;SDS011;7351;51.194;4.098;2023-04-30T08:10:11;9.20;;;5.87;;
14528;SDS011;7351;51.194;4.098;2023-04-30T08:12:40;18.60;;;7.73;;
14528;SDS011;7351;51.194;4.098;2023-04-30T08:15:08;13.90;;;11.07;;
14528;SDS011;7351;51.194;4.098;2023-04-30T08:17:36;14.07;;;12.73;;
14528;SDS011;7351;51.194;4.098;2023-04-30T08:20:04;12.83;;;11.83;;
14528;SDS011;7351;51.194;4.098;2023-04-30T08:22:32;15.23;;;14.20;;
14528;SDS011;7351;51.194;4.098;2023-04-30T08:24:59;16.37;;;15.27;;
14528;SDS011;7351;51.194;4.098;2023-04-30T08:27:27;17.53;;;16.03;;
14528;SDS011;7351;51.194;4.098;2023-04-30T08:29:55;16.73;;;15.53;;
14528;SDS011;7351;51.194;4.098;2023-04-30T08:32:22;14.93;;;14.00;;
14528;SDS011;7351;51.194;4.098;2023-04-30T08:34:51;16.07;;;14.63;;
14528;SDS011;7351;51.194;4.098;2023-04-30T08:37:19;14.53;;;13.17;;
14528;SDS011;7351;51.194;4.098;2023-04-30T08:39:46;13.20;;;12.23;;
14528;SDS011;7351;51.194;4.098;2023-04-30T08:42:13;13.60;;;12.47;;
14528;SDS011;7351;51.194;4.098;2023-04-30T08:44:40;13.97;;;12.93;;
14528;SDS011;7351;51.194;4.098;2023-04-30T08:47:07;14.13;;;12.67;;
14528;SDS011;7351;51.194;4.098;2023-04-30T08:49:38;13.93;;;12.77;;
14528;SDS011;7351;51.194;4.098;2023-04-30T08:52:07;13.53;;;12.23;;
14528;SDS011;7351;51.194;4.098;2023-04-30T08:54:34;13.47;;;12.30;;
14528;SDS011;7351;51.194;4.098;2023-04-30T08:57:02;11.97;;;10.87;;
14528;SDS011;7351;51.194;4.098;2023-04-30T08:59:29;11.23;;;10.40;;
14528;SDS011;7351;51.194;4.098;2023-04-30T09:01:56;12.00;;;11.10;;
14528;SDS011;7351;51.194;4.098;2023-04-30T09:04:26;10.93;;;10.03;;
14528;SDS011;7351;51.194;4.098;2023-04-30T09:06:53;10.17;;;9.47;;
14528;SDS011;7351;51.194;4.098;2023-04-30T09:09:26;11.07;;;10.13;;
14528;SDS011;7351;51.194;4.098;2023-04-30T09:11:58;10.57;;;9.57;;
14528;SDS011;7351;51.194;4.098;2023-04-30T09:14:37;10.03;;;9.23;;
14528;SDS011;7351;51.194;4.098;2023-04-30T09:17:05;11.80;;;9.10;;
14528;SDS011;7351;51.194;4.098;2023-04-30T09:19:34;9.37;;;8.53;;
14528;SDS011;7351;51.194;4.098;2023-04-30T09:22:17;9.53;;;8.60;;
14528;SDS011;7351;51.194;4.098;2023-04-30T09:24:47;10.57;;;9.37;;
14528;SDS011;7351;51.194;4.098;2023-04-30T09:27:15;8.77;;;8.00;;
14528;SDS011;7351;51.194;4.098;2023-04-30T09:29:43;8.37;;;7.67;;
14528;SDS011;7351;51.194;4.098;2023-04-30T09:32:10;9.10;;;7.53;;
14528;SDS011;7351;51.194;4.098;2023-04-30T09:34:38;8.40;;;7.77;;
14528;SDS011;7351;51.194;4.098;2023-04-30T09:37:05;7.87;;;7.03;;
14528;SDS011;7351;51.194;4.098;2023-04-30T09:39:32;8.10;;;7.47;;
14528;SDS011;7351;51.194;4.098;2023-04-30T09:42:12;9.20;;;7.43;;
14528;SDS011;7351;51.194;4.098;2023-04-30T09:44:39;7.87;;;7.00;;
14528;SDS011;7351;51.194;4.098;2023-04-30T09:47:09;7.97;;;7.13;;
14528;SDS011;7351;51.194;4.098;2023-04-30T09:49:39;7.17;;;6.67;;
14528;SDS011;7351;51.194;4.098;2023-04-30T09:52:07;7.70;;;6.70;;
14528;SDS011;7351;51.194;4.098;2023-04-30T09:54:34;7.73;;;6.83;;
14528;SDS011;7351;51.194;4.098;2023-04-30T09:57:02;8.53;;;6.47;;
14528;SDS011;7351;51.194;4.098;2023-04-30T09:59:31;7.30;;;6.57;;
14528;SDS011;7351;51.194;4.098;2023-04-30T10:02:02;10.20;;;6.17;;
14528;SDS011;7351;51.194;4.098;2023-04-30T10:04:32;7.17;;;6.50;;
14528;SDS011;7351;51.194;4.098;2023-04-30T10:07:01;7.57;;;5.23;;
14528;SDS011;7351;51.194;4.098;2023-04-30T10:09:32;14.77;;;6.90;;
14528;SDS011;7351;51.194;4.098;2023-04-30T10:12:05;8.70;;;7.07;;
14528;SDS011;7351;51.194;4.098;2023-04-30T10:14:39;11.67;;;7.23;;
14528;SDS011;7351;51.194;4.098;2023-04-30T10:17:12;9.13;;;7.03;;
14528;SDS011;7351;51.194;4.098;2023-04-30T10:19:42;10.30;;;7.07;;
14528;SDS011;7351;51.194;4.098;2023-04-30T10:22:13;9.33;;;7.40;;
14528;SDS011;7351;51.194;4.098;2023-04-30T10:24:42;11.83;;;6.93;;
14528;SDS011;7351;51.194;4.098;2023-04-30T10:27:11;10.77;;;5.87;;
14528;SDS011;7351;51.194;4.098;2023-04-30T10:29:39;7.97;;;6.53;;
14528;SDS011;7351;51.194;4.098;2023-04-30T10:32:06;7.97;;;6.03;;
14528;SDS011;7351;51.194;4.098;2023-04-30T10:34:39;10.87;;;7.23;;
14528;SDS011;7351;51.194;4.098;2023-04-30T10:37:14;8.43;;;6.57;;
14528;SDS011;7351;51.194;4.098;2023-04-30T10:39:47;6.07;;;5.40;;
14528;SDS011;7351;51.194;4.098;2023-04-30T10:42:16;6.87;;;5.73;;
14528;SDS011;7351;51.194;4.098;2023-04-30T10:44:44;8.40;;;5.87;;
14528;SDS011;7351;51.194;4.098;2023-04-30T10:47:12;7.23;;;5.10;;
14528;SDS011;7351;51.194;4.098;2023-04-30T10:49:44;5.40;;;4.90;;
14528;SDS011;7351;51.194;4.098;2023-04-30T10:52:12;5.63;;;5.03;;
14528;SDS011;7351;51.194;4.098;2023-04-30T10:54:39;9.17;;;6.60;;
14528;SDS011;7351;51.194;4.098;2023-04-30T10:57:16;7.67;;;5.30;;
14528;SDS011;7351;51.194;4.098;2023-04-30T10:59:51;7.63;;;4.90;;
14528;SDS011;7351;51.194;4.098;2023-04-30T11:02:19;5.00;;;4.60;;
14528;SDS011;7351;51.194;4.098;2023-04-30T11:07:36;6.43;;;4.43;;
14528;SDS011;7351;51.194;4.098;2023-04-30T11:10:11;5.60;;;4.13;;
14528;SDS011;7351;51.194;4.098;2023-04-30T11:12:40;7.27;;;4.63;;
14528;SDS011;7351;51.194;4.098;2023-04-30T11:15:14;9.53;;;4.93;;
14528;SDS011;7351;51.194;4.098;2023-04-30T11:17:44;5.37;;;4.87;;
14528;SDS011;7351;51.194;4.098;2023-04-30T11:20:11;4.40;;;4.00;;
14528;SDS011;7351;51.194;4.098;2023-04-30T11:22:39;9.27;;;4.37;;
14528;SDS011;7351;51.194;4.098;2023-04-30T11:25:07;8.83;;;5.03;;
14528;SDS011;7351;51.194;4.098;2023-04-30T11:27:37;10.37;;;3.77;;
14528;SDS011;7351;51.194;4.098;2023-04-30T11:30:10;6.33;;;4.30;;
14528;SDS011;7351;51.194;4.098;2023-04-30T11:32:41;5.77;;;4.50;;
14528;SDS011;7351;51.194;4.098;2023-04-30T11:35:10;4.63;;;3.97;;
14528;SDS011;7351;51.194;4.098;2023-04-30T11:37:37;6.80;;;3.90;;
14528;SDS011;7351;51.194;4.098;2023-04-30T11:40:07;5.27;;;3.33;;
14528;SDS011;7351;51.194;4.098;2023-04-30T11:42:35;4.73;;;3.20;;
14528;SDS011;7351;51.194;4.098;2023-04-30T11:45:04;5.73;;;3.90;;
14528;SDS011;7351;51.194;4.098;2023-04-30T11:47:40;9.13;;;3.97;;
14528;SDS011;7351;51.194;4.098;2023-04-30T11:50:10;5.23;;;3.37;;
14528;SDS011;7351;51.194;4.098;2023-04-30T11:52:37;7.33;;;3.63;;
14528;SDS011;7351;51.194;4.098;2023-04-30T11:55:06;8.00;;;3.30;;
14528;SDS011;7351;51.194;4.098;2023-04-30T11:57:41;3.60;;;2.83;;
14528;SDS011;7351;51.194;4.098;2023-04-30T12:00:09;9.10;;;4.17;;
14528;SDS011;7351;51.194;4.098;2023-04-30T12:02:37;8.67;;;3.57;;
14528;SDS011;7351;51.194;4.098;2023-04-30T12:05:06;12.73;;;3.73;;
14528;SDS011;7351;51.194;4.098;2023-04-30T12:07:42;5.53;;;3.47;;
14528;SDS011;7351;51.194;4.098;2023-04-30T12:10:11;3.33;;;2.83;;
14528;SDS011;7351;51.194;4.098;2023-04-30T12:12:38;4.73;;;2.67;;
14528;SDS011;7351;51.194;4.098;2023-04-30T12:15:12;3.40;;;3.00;;
14528;SDS011;7351;51.194;4.098;2023-04-30T12:17:41;3.77;;;2.93;;
14528;SDS011;7351;51.194;4.098;2023-04-30T12:20:10;5.07;;;3.13;;
14528;SDS011;7351;51.194;4.098;2023-04-30T12:22:38;6.33;;;3.20;;
14528;SDS011;7351;51.194;4.098;2023-04-30T12:25:07;9.90;;;3.27;;
14528;SDS011;7351;51.194;4.098;2023-04-30T12:27:37;4.43;;;2.97;;
14528;SDS011;7351;51.194;4.098;2023-04-30T12:30:06;7.10;;;3.13;;
14528;SDS011;7351;51.194;4.098;2023-04-30T12:32:41;4.00;;;3.13;;
14528;SDS011;7351;51.194;4.098;2023-04-30T12:35:13;7.07;;;3.67;;
14528;SDS011;7351;51.194;4.098;2023-04-30T12:37:42;4.70;;;2.77;;
14528;SDS011;7351;51.194;4.098;2023-04-30T12:40:10;9.00;;;3.40;;
14528;SDS011;7351;51.194;4.098;2023-04-30T12:42:38;5.87;;;2.63;;
14528;SDS011;7351;51.194;4.098;2023-04-30T12:45:07;8.43;;;3.77;;
14528;SDS011;7351;51.194;4.098;2023-04-30T12:47:36;6.50;;;3.10;;
14528;SDS011;7351;51.194;4.098;2023-04-30T12:50:06;3.90;;;3.33;;
14528;SDS011;7351;51.194;4.098;2023-04-30T12:52:37;3.27;;;2.37;;
14528;SDS011;7351;51.194;4.098;2023-04-30T12:55:15;4.53;;;2.80;;
14528;SDS011;7351;51.194;4.098;2023-04-30T13:00:28;3.90;;;2.70;;
14528;SDS011;7351;51.194;4.098;2023-04-30T13:02:56;9.60;;;3.37;;
14528;SDS011;7351;51.194;4.098;2023-04-30T13:05:22;4.00;;;2.73;;
14528;SDS011;7351;51.194;4.098;2023-04-30T13:07:52;6.23;;;2.40;;
14528;SDS011;7351;51.194;4.098;2023-04-30T13:10:28;4.80;;;3.13;;
14528;SDS011;7351;51.194;4.098;2023-04-30T13:12:55;8.60;;;3.27;;
14528;SDS011;7351;51.194;4.098;2023-04-30T13:15:22;5.80;;;2.83;;
14528;SDS011;7351;51.194;4.098;2023-04-30T13:17:49;4.37;;;3.03;;
14528;SDS011;7351;51.194;4.098;2023-04-30T13:20:16;2.33;;;2.17;;
14528;SDS011;7351;51.194;4.098;2023-04-30T13:22:43;4.97;;;2.00;;
14528;SDS011;7351;51.194;4.098;2023-04-30T13:25:11;3.90;;;2.33;;
14528;SDS011;7351;51.194;4.098;2023-04-30T13:27:38;2.90;;;2.70;;
14528;SDS011;7351;51.194;4.098;2023-04-30T13:30:05;2.40;;;2.00;;
14528;SDS011;7351;51.194;4.098;2023-04-30T13:32:33;4.97;;;2.67;;
14528;SDS011;7351;51.194;4.098;2023-04-30T13:35:00;5.73;;;2.90;;
14528;SDS011;7351;51.194;4.098;2023-04-30T13:37:27;4.00;;;2.50;;
14528;SDS011;7351;51.194;4.098;2023-04-30T13:39:55;3.53;;;2.60;;
14528;SDS011;7351;51.194;4.098;2023-04-30T13:42:25;2.37;;;2.20;;
14528;SDS011;7351;51.194;4.098;2023-04-30T13:44:52;4.27;;;2.73;;
14528;SDS011;7351;51.194;4.098;2023-04-30T13:47:19;3.40;;;2.60;;
14528;SDS011;7351;51.194;4.098;2023-04-30T13:49:46;2.77;;;2.57;;
14528;SDS011;7351;51.194;4.098;2023-04-30T13:52:13;3.13;;;2.77;;
14528;SDS011;7351;51.194;4.098;2023-04-30T13:54:40;3.27;;;2.50;;
14528;SDS011;7351;51.194;4.098;2023-04-30T13:57:07;2.93;;;2.60;;
14528;SDS011;7351;51.194;4.098;2023-04-30T13:59:35;3.00;;;2.33;;
14528;SDS011;7351;51.194;4.098;2023-04-30T14:02:02;3.20;;;2.73;;
14528;SDS011;7351;51.194;4.098;2023-04-30T14:04:29;3.00;;;2.70;;
14528;SDS011;7351;51.194;4.098;2023-04-30T14:06:56;3.10;;;2.83;;
14528;SDS011;7351;51.194;4.098;2023-04-30T14:09:23;2.80;;;2.60;;
14528;SDS011;7351;51.194;4.098;2023-04-30T14:11:51;2.97;;;2.77;;
14528;SDS011;7351;51.194;4.098;2023-04-30T14:14:20;2.77;;;2.20;;
14528;SDS011;7351;51.194;4.098;2023-04-30T14:16:48;3.23;;;2.30;;
14528;SDS011;7351;51.194;4.098;2023-04-30T14:19:15;2.83;;;2.63;;
14528;SDS011;7351;51.194;4.098;2023-04-30T14:21:42;3.10;;;2.77;;
14528;SDS011;7351;51.194;4.098;2023-04-30T14:24:09;2.83;;;2.40;;
14528;SDS011;7351;51.194;4.098;2023-04-30T14:26:37;2.57;;;2.47;;
14528;SDS011;7351;51.194;4.098;2023-04-30T14:29:05;2.30;;;2.10;;
14528;SDS011;7351;51.194;4.098;2023-04-30T14:31:32;5.13;;;2.47;;
14528;SDS011;7351;51.194;4.098;2023-04-30T14:34:00;4.63;;;3.53;;
14528;SDS011;7351;51.194;4.098;2023-04-30T14:36:27;5.50;;;2.80;;
14528;SDS011;7351;51.194;4.098;2023-04-30T14:38:54;2.50;;;2.30;;
14528;SDS011;7351;51.194;4.098;2023-04-30T14:41:21;2.83;;;2.63;;
14528;SDS011;7351;51.194;4.098;2023-04-30T14:43:48;4.97;;;3.47;;
14528;SDS011;7351;51.194;4.098;2023-04-30T14:46:16;2.60;;;2.40;;
14528;SDS011;7351;51.194;4.098;2023-04-30T14:48:44;3.60;;;2.80;;
14528;SDS011;7351;51.194;4.098;2023-04-30T14:51:12;2.90;;;2.63;;
14528;SDS011;7351;51.194;4.098;2023-04-30T14:53:39;4.67;;;2.70;;
14528;SDS011;7351;51.194;4.098;2023-04-30T14:56:06;2.73;;;2.50;;
14528;SDS011;7351;51.194;4.098;2023-04-30T14:58:33;2.53;;;2.33;;
14528;SDS011;7351;51.194;4.098;2023-04-30T15:01:00;2.47;;;2.27;;
14528;SDS011;7351;51.194;4.098;2023-04-30T15:03:27;4.47;;;3.00;;
14528;SDS011;7351;51.194;4.098;2023-04-30T15:05:55;2.57;;;2.37;;
14528;SDS011;7351;51.194;4.098;2023-04-30T15:08:23;3.20;;;2.73;;
14528;SDS011;7351;51.194;4.098;2023-04-30T15:10:50;2.80;;;2.53;;